sensor_id;sensor_type;location;lat;lon;timestamp;P1;durP1;ratioP1;P2;durP2;ratioP2
19554;SDS011;9924;50.828;6.440;2023-03-23T00:02:14;2.83;;;1.33;;
19554;SDS011;9924;50.828;6.440;2023-03-23T00:04:59;2.65;;;1.40;;
19554;SDS011;9924;50.828;6.440;2023-03-23T00:07:44;4.32;;;1.50;;
19554;SDS011;9924;50.828;6.440;2023-03-23T00:10:29;2.55;;;1.67;;
19554;SDS011;9924;50.828;6.440;2023-03-23T00:13:16;1.70;;;1.45;;
19554;SDS011;9924;50.828;6.440;2023-03-23T00:16:03;3.72;;;1.83;;
19554;SDS011;9924;50.828;6.440;2023-03-23T00:18:48;2.20;;;1.25;;
19554;SDS011;9924;50.828;6.440;2023-03-23T00:21:36;2.50;;;1.58;;
19554;SDS011;9924;50.828;6.440;2023-03-23T00:24:22;2.25;;;1.25;;
19554;SDS011;9924;50.828;6.440;2023-03-23T00:27:07;1.98;;;1.50;;
19554;SDS011;9924;50.828;6.440;2023-03-23T00:29:58;3.03;;;1.40;;
19554;SDS011;9924;50.828;6.440;2023-03-23T00:32:42;3.17;;;1.30;;
19554;SDS011;9924;50.828;6.440;2023-03-23T00:35:27;3.28;;;1.55;;
19554;SDS011;9924;50.828;6.440;2023-03-23T00:38:11;2.25;;;1.45;;
19554;SDS011;9924;50.828;6.440;2023-03-23T00:40:55;2.30;;;2.08;;
19554;SDS011;9924;50.828;6.440;2023-03-23T00:43:41;1.58;;;1.42;;
19554;SDS011;9924;50.828;6.440;2023-03-23T00:46:25;2.00;;;1.30;;
19554;SDS011;9924;50.828;6.440;2023-03-23T00:49:12;2.90;;;1.40;;
19554;SDS011;9924;50.828;6.440;2023-03-23T00:51:57;1.55;;;1.20;;
19554;SDS011;9924;50.828;6.440;2023-03-23T00:54:42;2.92;;;1.30;;
19554;SDS011;9924;50.828;6.440;2023-03-23T00:57:26;1.85;;;1.42;;
19554;SDS011;9924;50.828;6.440;2023-03-23T01:00:11;4.97;;;1.60;;
19554;SDS011;9924;50.828;6.440;2023-03-23T01:02:56;2.17;;;1.52;;
19554;SDS011;9924;50.828;6.440;2023-03-23T01:05:40;1.90;;;1.52;;
19554;SDS011;9924;50.828;6.440;2023-03-23T01:08:24;3.42;;;1.60;;
19554;SDS011;9924;50.828;6.440;2023-03-23T01:11:11;1.85;;;1.50;;
19554;SDS011;9924;50.828;6.440;2023-03-23T01:13:57;2.42;;;1.63;;
19554;SDS011;9924;50.828;6.440;2023-03-23T01:16:42;3.33;;;1.80;;
19554;SDS011;9924;50.828;6.440;2023-03-23T01:19:26;1.92;;;1.45;;
19554;SDS011;9924;50.828;6.440;2023-03-23T01:22:10;2.03;;;1.45;;
19554;SDS011;9924;50.828;6.440;2023-03-23T01:24:55;1.88;;;1.30;;
19554;SDS011;9924;50.828;6.440;2023-03-23T01:27:39;2.70;;;1.60;;
19554;SDS011;9924;50.828;6.440;2023-03-23T01:30:24;1.95;;;1.40;;
19554;SDS011;9924;50.828;6.440;2023-03-23T01:33:09;3.00;;;1.70;;
19554;SDS011;9924;50.828;6.440;2023-03-23T01:35:53;2.08;;;1.77;;
19554;SDS011;9924;50.828;6.440;2023-03-23T01:38:38;2.83;;;1.80;;
19554;SDS011;9924;50.828;6.440;2023-03-23T01:41:22;3.55;;;1.50;;
19554;SDS011;9924;50.828;6.440;2023-03-23T01:46:59;2.67;;;2.13;;
19554;SDS011;9924;50.828;6.440;2023-03-23T01:49:45;2.80;;;1.70;;
19554;SDS011;9924;50.828;6.440;2023-03-23T01:52:31;3.30;;;1.63;;
19554;SDS011;9924;50.828;6.440;2023-03-23T01:55:17;1.73;;;1.33;;
19554;SDS011;9924;50.828;6.440;2023-03-23T01:58:02;2.47;;;1.52;;
19554;SDS011;9924;50.828;6.440;2023-03-23T02:00:47;2.63;;;1.30;;
19554;SDS011;9924;50.828;6.440;2023-03-23T02:03:32;1.65;;;1.48;;
19554;SDS011;9924;50.828;6.440;2023-03-23T02:06:20;2.03;;;1.27;;
19554;SDS011;9924;50.828;6.440;2023-03-23T02:09:05;1.77;;;1.10;;
19554;SDS011;9924;50.828;6.440;2023-03-23T02:11:52;5.57;;;1.40;;
19554;SDS011;9924;50.828;6.440;2023-03-23T02:14:38;2.85;;;1.30;;
19554;SDS011;9924;50.828;6.440;2023-03-23T02:17:24;2.28;;;1.23;;
19554;SDS011;9924;50.828;6.440;2023-03-23T02:20:19;1.45;;;0.90;;
19554;SDS011;9924;50.828;6.440;2023-03-23T02:26:04;1.27;;;0.93;;
19554;SDS011;9924;50.828;6.440;2023-03-23T02:35:23;3.42;;;1.20;;
19554;SDS011;9924;50.828;6.440;2023-03-23T02:38:18;1.02;;;0.85;;
19554;SDS011;9924;50.828;6.440;2023-03-23T02:41:10;1.65;;;1.00;;
19554;SDS011;9924;50.828;6.440;2023-03-23T02:43:57;1.38;;;1.02;;
19554;SDS011;9924;50.828;6.440;2023-03-23T02:46:42;1.15;;;1.00;;
19554;SDS011;9924;50.828;6.440;2023-03-23T02:49:29;1.00;;;0.90;;
19554;SDS011;9924;50.828;6.440;2023-03-23T02:52:17;2.15;;;1.17;;
19554;SDS011;9924;50.828;6.440;2023-03-23T02:55:04;1.55;;;0.85;;
19554;SDS011;9924;50.828;6.440;2023-03-23T02:57:54;1.92;;;1.05;;
19554;SDS011;9924;50.828;6.440;2023-03-23T03:00:38;1.15;;;0.90;;
19554;SDS011;9924;50.828;6.440;2023-03-23T03:03:24;2.00;;;1.20;;
19554;SDS011;9924;50.828;6.440;2023-03-23T03:06:23;1.98;;;0.98;;
19554;SDS011;9924;50.828;6.440;2023-03-23T03:12:04;2.22;;;1.50;;
19554;SDS011;9924;50.828;6.440;2023-03-23T03:14:58;2.72;;;1.27;;
19554;SDS011;9924;50.828;6.440;2023-03-23T03:17:45;1.88;;;1.00;;
19554;SDS011;9924;50.828;6.440;2023-03-23T03:20:38;1.50;;;1.17;;
19554;SDS011;9924;50.828;6.440;2023-03-23T03:23:28;1.20;;;1.10;;
19554;SDS011;9924;50.828;6.440;2023-03-23T03:26:14;1.35;;;1.17;;
19554;SDS011;9924;50.828;6.440;2023-03-23T03:29:00;1.65;;;1.30;;
19554;SDS011;9924;50.828;6.440;2023-03-23T03:31:45;1.70;;;1.00;;
19554;SDS011;9924;50.828;6.440;2023-03-23T03:34:32;1.92;;;1.08;;
19554;SDS011;9924;50.828;6.440;2023-03-23T03:37:17;4.28;;;1.63;;
19554;SDS011;9924;50.828;6.440;2023-03-23T03:40:05;2.60;;;1.20;;
19554;SDS011;9924;50.828;6.440;2023-03-23T03:42:55;1.30;;;1.20;;
19554;SDS011;9924;50.828;6.440;2023-03-23T03:45:39;1.65;;;1.25;;
19554;SDS011;9924;50.828;6.440;2023-03-23T03:48:25;2.95;;;1.30;;
19554;SDS011;9924;50.828;6.440;2023-03-23T03:51:10;1.60;;;1.27;;
19554;SDS011;9924;50.828;6.440;2023-03-23T03:53:54;1.48;;;1.20;;
19554;SDS011;9924;50.828;6.440;2023-03-23T03:56:39;1.40;;;1.20;;
19554;SDS011;9924;50.828;6.440;2023-03-23T03:59:26;4.63;;;1.27;;
19554;SDS011;9924;50.828;6.440;2023-03-23T04:02:11;1.85;;;1.13;;
19554;SDS011;9924;50.828;6.440;2023-03-23T04:04:58;2.45;;;1.30;;
19554;SDS011;9924;50.828;6.440;2023-03-23T04:07:42;2.45;;;1.30;;
19554;SDS011;9924;50.828;6.440;2023-03-23T04:10:26;1.85;;;1.30;;
19554;SDS011;9924;50.828;6.440;2023-03-23T04:13:12;2.95;;;1.50;;
19554;SDS011;9924;50.828;6.440;2023-03-23T04:15:57;2.08;;;1.60;;
19554;SDS011;9924;50.828;6.440;2023-03-23T04:18:41;1.75;;;1.30;;
19554;SDS011;9924;50.828;6.440;2023-03-23T04:21:28;2.15;;;1.48;;
19554;SDS011;9924;50.828;6.440;2023-03-23T04:24:12;2.15;;;1.35;;
19554;SDS011;9924;50.828;6.440;2023-03-23T04:26:56;2.70;;;1.30;;
19554;SDS011;9924;50.828;6.440;2023-03-23T04:29:41;3.28;;;1.52;;
19554;SDS011;9924;50.828;6.440;2023-03-23T04:32:26;1.58;;;1.20;;
19554;SDS011;9924;50.828;6.440;2023-03-23T04:35:15;2.72;;;1.50;;
19554;SDS011;9924;50.828;6.440;2023-03-23T04:38:01;1.92;;;1.23;;
19554;SDS011;9924;50.828;6.440;2023-03-23T04:40:45;4.00;;;1.70;;
19554;SDS011;9924;50.828;6.440;2023-03-23T04:43:31;2.03;;;1.30;;
19554;SDS011;9924;50.828;6.440;2023-03-23T04:46:16;1.92;;;1.60;;
19554;SDS011;9924;50.828;6.440;2023-03-23T04:49:01;2.85;;;1.20;;
19554;SDS011;9924;50.828;6.440;2023-03-23T04:51:46;3.50;;;1.50;;
19554;SDS011;9924;50.828;6.440;2023-03-23T04:54:35;2.55;;;1.50;;
19554;SDS011;9924;50.828;6.440;2023-03-23T04:57:19;2.22;;;1.40;;
19554;SDS011;9924;50.828;6.440;2023-03-23T05:00:03;5.30;;;2.33;;
19554;SDS011;9924;50.828;6.440;2023-03-23T05:02:53;3.45;;;1.50;;
19554;SDS011;9924;50.828;6.440;2023-03-23T05:05:39;3.25;;;1.45;;
19554;SDS011;9924;50.828;6.440;2023-03-23T05:08:24;2.67;;;1.40;;
19554;SDS011;9924;50.828;6.440;2023-03-23T05:11:08;8.07;;;1.77;;
19554;SDS011;9924;50.828;6.440;2023-03-23T05:13:53;2.10;;;1.30;;
19554;SDS011;9924;50.828;6.440;2023-03-23T05:16:37;6.35;;;1.50;;
19554;SDS011;9924;50.828;6.440;2023-03-23T05:19:21;4.20;;;1.48;;
19554;SDS011;9924;50.828;6.440;2023-03-23T05:22:06;5.38;;;1.30;;
19554;SDS011;9924;50.828;6.440;2023-03-23T05:24:50;3.92;;;1.50;;
19554;SDS011;9924;50.828;6.440;2023-03-23T05:27:35;5.90;;;1.25;;
19554;SDS011;9924;50.828;6.440;2023-03-23T05:30:20;2.22;;;1.27;;
19554;SDS011;9924;50.828;6.440;2023-03-23T05:33:05;5.95;;;1.80;;
19554;SDS011;9924;50.828;6.440;2023-03-23T05:35:50;2.45;;;1.60;;
19554;SDS011;9924;50.828;6.440;2023-03-23T05:38:34;4.60;;;1.27;;
19554;SDS011;9924;50.828;6.440;2023-03-23T05:41:19;4.95;;;2.33;;
19554;SDS011;9924;50.828;6.440;2023-03-23T05:44:04;3.45;;;1.20;;
19554;SDS011;9924;50.828;6.440;2023-03-23T05:46:49;5.28;;;1.40;;
19554;SDS011;9924;50.828;6.440;2023-03-23T05:49:33;4.70;;;1.50;;
19554;SDS011;9924;50.828;6.440;2023-03-23T05:52:19;2.90;;;1.48;;
19554;SDS011;9924;50.828;6.440;2023-03-23T05:55:05;2.90;;;1.40;;
19554;SDS011;9924;50.828;6.440;2023-03-23T05:57:51;3.42;;;1.50;;
19554;SDS011;9924;50.828;6.440;2023-03-23T06:00:35;3.20;;;1.85;;
19554;SDS011;9924;50.828;6.440;2023-03-23T06:03:21;3.08;;;1.58;;
19554;SDS011;9924;50.828;6.440;2023-03-23T06:06:06;4.60;;;1.45;;
19554;SDS011;9924;50.828;6.440;2023-03-23T06:08:53;4.75;;;1.67;;
19554;SDS011;9924;50.828;6.440;2023-03-23T06:11:38;5.00;;;1.40;;
19554;SDS011;9924;50.828;6.440;2023-03-23T06:14:22;2.60;;;1.13;;
19554;SDS011;9924;50.828;6.440;2023-03-23T06:17:06;4.38;;;1.20;;
19554;SDS011;9924;50.828;6.440;2023-03-23T06:19:51;2.30;;;1.15;;
19554;SDS011;9924;50.828;6.440;2023-03-23T06:22:36;2.75;;;1.35;;
19554;SDS011;9924;50.828;6.440;2023-03-23T06:25:21;2.30;;;1.20;;
19554;SDS011;9924;50.828;6.440;2023-03-23T06:28:06;3.28;;;1.20;;
19554;SDS011;9924;50.828;6.440;2023-03-23T06:30:50;2.20;;;1.10;;
19554;SDS011;9924;50.828;6.440;2023-03-23T06:33:36;2.13;;;0.90;;
19554;SDS011;9924;50.828;6.440;2023-03-23T06:36:21;3.25;;;1.17;;
19554;SDS011;9924;50.828;6.440;2023-03-23T06:39:06;2.33;;;1.27;;
19554;SDS011;9924;50.828;6.440;2023-03-23T06:41:51;1.30;;;1.08;;
19554;SDS011;9924;50.828;6.440;2023-03-23T06:44:35;2.25;;;1.17;;
19554;SDS011;9924;50.828;6.440;2023-03-23T06:47:19;2.92;;;1.17;;
19554;SDS011;9924;50.828;6.440;2023-03-23T06:50:04;3.28;;;1.08;;
19554;SDS011;9924;50.828;6.440;2023-03-23T06:52:49;7.68;;;1.17;;
19554;SDS011;9924;50.828;6.440;2023-03-23T06:55:34;1.88;;;1.00;;
19554;SDS011;9924;50.828;6.440;2023-03-23T06:58:19;2.58;;;1.10;;
19554;SDS011;9924;50.828;6.440;2023-03-23T07:01:04;2.40;;;0.90;;
19554;SDS011;9924;50.828;6.440;2023-03-23T07:03:49;2.75;;;1.08;;
19554;SDS011;9924;50.828;6.440;2023-03-23T07:06:34;3.55;;;1.00;;
19554;SDS011;9924;50.828;6.440;2023-03-23T07:09:18;2.35;;;1.23;;
19554;SDS011;9924;50.828;6.440;2023-03-23T07:12:03;3.40;;;1.00;;
19554;SDS011;9924;50.828;6.440;2023-03-23T07:14:49;10.23;;;1.30;;
19554;SDS011;9924;50.828;6.440;2023-03-23T07:17:33;6.18;;;1.13;;
19554;SDS011;9924;50.828;6.440;2023-03-23T07:20:17;2.08;;;1.05;;
19554;SDS011;9924;50.828;6.440;2023-03-23T07:23:02;2.03;;;1.20;;
19554;SDS011;9924;50.828;6.440;2023-03-23T07:25:48;3.92;;;1.05;;
19554;SDS011;9924;50.828;6.440;2023-03-23T07:28:33;6.13;;;1.52;;
19554;SDS011;9924;50.828;6.440;2023-03-23T07:31:18;3.72;;;1.20;;
19554;SDS011;9924;50.828;6.440;2023-03-23T07:34:02;4.40;;;1.00;;
19554;SDS011;9924;50.828;6.440;2023-03-23T07:36:47;2.67;;;1.17;;
19554;SDS011;9924;50.828;6.440;2023-03-23T07:39:32;3.58;;;1.23;;
19554;SDS011;9924;50.828;6.440;2023-03-23T07:42:16;3.25;;;0.90;;
19554;SDS011;9924;50.828;6.440;2023-03-23T07:45:01;3.97;;;1.30;;
19554;SDS011;9924;50.828;6.440;2023-03-23T07:47:45;3.42;;;1.05;;
19554;SDS011;9924;50.828;6.440;2023-03-23T07:50:29;5.45;;;1.25;;
19554;SDS011;9924;50.828;6.440;2023-03-23T07:53:14;5.00;;;1.30;;
19554;SDS011;9924;50.828;6.440;2023-03-23T07:55:59;2.85;;;1.65;;
19554;SDS011;9924;50.828;6.440;2023-03-23T07:58:47;5.53;;;1.00;;
19554;SDS011;9924;50.828;6.440;2023-03-23T08:01:31;7.45;;;1.27;;
19554;SDS011;9924;50.828;6.440;2023-03-23T08:04:16;1.63;;;1.00;;
19554;SDS011;9924;50.828;6.440;2023-03-23T08:07:01;3.20;;;1.10;;
19554;SDS011;9924;50.828;6.440;2023-03-23T08:09:46;3.42;;;1.02;;
19554;SDS011;9924;50.828;6.440;2023-03-23T08:12:31;4.40;;;0.98;;
19554;SDS011;9924;50.828;6.440;2023-03-23T08:15:15;5.03;;;1.23;;
19554;SDS011;9924;50.828;6.440;2023-03-23T08:18:01;3.03;;;0.98;;
19554;SDS011;9924;50.828;6.440;2023-03-23T08:20:46;5.38;;;1.20;;
19554;SDS011;9924;50.828;6.440;2023-03-23T08:23:32;4.20;;;1.35;;
19554;SDS011;9924;50.828;6.440;2023-03-23T08:26:17;2.63;;;1.20;;
19554;SDS011;9924;50.828;6.440;2023-03-23T08:29:01;6.03;;;1.33;;
19554;SDS011;9924;50.828;6.440;2023-03-23T08:31:47;3.47;;;1.15;;
19554;SDS011;9924;50.828;6.440;2023-03-23T08:34:31;4.28;;;1.25;;
19554;SDS011;9924;50.828;6.440;2023-03-23T08:37:16;2.05;;;0.98;;
19554;SDS011;9924;50.828;6.440;2023-03-23T08:40:00;5.20;;;1.48;;
19554;SDS011;9924;50.828;6.440;2023-03-23T08:42:51;6.22;;;1.30;;
19554;SDS011;9924;50.828;6.440;2023-03-23T08:45:36;3.67;;;1.02;;
19554;SDS011;9924;50.828;6.440;2023-03-23T08:48:21;7.32;;;1.13;;
19554;SDS011;9924;50.828;6.440;2023-03-23T08:51:06;2.90;;;1.17;;
19554;SDS011;9924;50.828;6.440;2023-03-23T08:53:51;4.38;;;1.27;;
19554;SDS011;9924;50.828;6.440;2023-03-23T08:56:36;3.03;;;1.20;;
19554;SDS011;9924;50.828;6.440;2023-03-23T08:59:20;3.40;;;1.08;;
19554;SDS011;9924;50.828;6.440;2023-03-23T09:02:05;3.05;;;1.15;;
19554;SDS011;9924;50.828;6.440;2023-03-23T09:04:50;5.60;;;1.20;;
19554;SDS011;9924;50.828;6.440;2023-03-23T09:07:37;6.03;;;1.50;;
19554;SDS011;9924;50.828;6.440;2023-03-23T09:10:23;4.45;;;1.05;;
19554;SDS011;9924;50.828;6.440;2023-03-23T09:13:08;2.97;;;1.10;;
19554;SDS011;9924;50.828;6.440;2023-03-23T09:15:52;9.00;;;1.25;;
19554;SDS011;9924;50.828;6.440;2023-03-23T09:18:36;6.72;;;1.65;;
19554;SDS011;9924;50.828;6.440;2023-03-23T09:21:21;3.95;;;1.20;;
19554;SDS011;9924;50.828;6.440;2023-03-23T09:24:10;3.22;;;1.00;;
19554;SDS011;9924;50.828;6.440;2023-03-23T09:26:54;7.30;;;1.30;;
19554;SDS011;9924;50.828;6.440;2023-03-23T09:29:38;3.88;;;1.20;;
19554;SDS011;9924;50.828;6.440;2023-03-23T09:32:23;2.97;;;0.95;;
19554;SDS011;9924;50.828;6.440;2023-03-23T09:35:07;6.05;;;1.33;;
19554;SDS011;9924;50.828;6.440;2023-03-23T09:37:53;5.18;;;1.30;;
19554;SDS011;9924;50.828;6.440;2023-03-23T09:40:46;4.18;;;1.10;;
19554;SDS011;9924;50.828;6.440;2023-03-23T09:43:52;3.00;;;1.00;;
19554;SDS011;9924;50.828;6.440;2023-03-23T09:49:39;3.13;;;1.30;;
19554;SDS011;9924;50.828;6.440;2023-03-23T09:52:35;4.78;;;1.55;;
19554;SDS011;9924;50.828;6.440;2023-03-23T09:55:24;2.17;;;0.82;;
19554;SDS011;9924;50.828;6.440;2023-03-23T10:01:04;4.15;;;0.65;;
19554;SDS011;9924;50.828;6.440;2023-03-23T10:04:02;1.33;;;0.70;;
19554;SDS011;9924;50.828;6.440;2023-03-23T10:07:22;1.60;;;0.93;;
19554;SDS011;9924;50.828;6.440;2023-03-23T10:10:11;1.60;;;0.68;;
19554;SDS011;9924;50.828;6.440;2023-03-23T10:13:01;2.15;;;0.63;;
19554;SDS011;9924;50.828;6.440;2023-03-23T10:16:01;2.90;;;0.77;;
19554;SDS011;9924;50.828;6.440;2023-03-23T10:21:45;0.98;;;0.50;;
19554;SDS011;9924;50.828;6.440;2023-03-23T10:24:39;2.30;;;1.00;;
19554;SDS011;9924;50.828;6.440;2023-03-23T10:30:35;2.80;;;0.85;;
19554;SDS011;9924;50.828;6.440;2023-03-23T10:36:26;3.20;;;0.90;;
19554;SDS011;9924;50.828;6.440;2023-03-23T10:39:18;5.93;;;0.98;;
19554;SDS011;9924;50.828;6.440;2023-03-23T10:42:05;4.53;;;0.93;;
19554;SDS011;9924;50.828;6.440;2023-03-23T10:44:51;1.38;;;0.82;;
19554;SDS011;9924;50.828;6.440;2023-03-23T10:47:37;3.95;;;0.90;;
19554;SDS011;9924;50.828;6.440;2023-03-23T10:50:27;3.40;;;0.77;;
19554;SDS011;9924;50.828;6.440;2023-03-23T10:53:34;1.38;;;0.60;;
19554;SDS011;9924;50.828;6.440;2023-03-23T10:59:11;2.38;;;0.60;;
19554;SDS011;9924;50.828;6.440;2023-03-23T11:01:58;3.80;;;0.82;;
19554;SDS011;9924;50.828;6.440;2023-03-23T11:04:53;4.47;;;0.90;;
19554;SDS011;9924;50.828;6.440;2023-03-23T11:07:47;0.98;;;0.60;;
19554;SDS011;9924;50.828;6.440;2023-03-23T11:10:37;2.30;;;0.70;;
19554;SDS011;9924;50.828;6.440;2023-03-23T11:13:30;0.95;;;0.43;;
19554;SDS011;9924;50.828;6.440;2023-03-23T11:16:22;1.30;;;0.60;;
19554;SDS011;9924;50.828;6.440;2023-03-23T11:19:12;0.88;;;0.40;;
19554;SDS011;9924;50.828;6.440;2023-03-23T11:22:05;0.55;;;0.40;;
19554;SDS011;9924;50.828;6.440;2023-03-23T11:24:55;0.63;;;0.40;;
19554;SDS011;9924;50.828;6.440;2023-03-23T11:27:43;1.83;;;0.40;;
19554;SDS011;9924;50.828;6.440;2023-03-23T11:30:27;2.67;;;0.70;;
19554;SDS011;9924;50.828;6.440;2023-03-23T11:33:15;2.25;;;0.52;;
19554;SDS011;9924;50.828;6.440;2023-03-23T11:35:59;1.85;;;0.60;;
19554;SDS011;9924;50.828;6.440;2023-03-23T11:38:44;2.05;;;0.60;;
19554;SDS011;9924;50.828;6.440;2023-03-23T11:41:31;0.85;;;0.60;;
19554;SDS011;9924;50.828;6.440;2023-03-23T11:44:17;1.08;;;0.68;;
19554;SDS011;9924;50.828;6.440;2023-03-23T11:47:16;1.35;;;0.80;;
19554;SDS011;9924;50.828;6.440;2023-03-23T11:50:21;1.45;;;0.70;;
19554;SDS011;9924;50.828;6.440;2023-03-23T11:53:15;1.77;;;0.75;;
19554;SDS011;9924;50.828;6.440;2023-03-23T11:59:11;2.83;;;0.82;;
19554;SDS011;9924;50.828;6.440;2023-03-23T12:08:33;3.13;;;0.90;;
19554;SDS011;9924;50.828;6.440;2023-03-23T12:17:20;1.85;;;1.00;;
19554;SDS011;9924;50.828;6.440;2023-03-23T12:20:32;2.33;;;0.88;;
19554;SDS011;9924;50.828;6.440;2023-03-23T12:27:00;2.00;;;0.90;;
19554;SDS011;9924;50.828;6.440;2023-03-23T12:30:02;2.88;;;0.80;;
19554;SDS011;9924;50.828;6.440;2023-03-23T12:41:48;2.65;;;0.90;;
19554;SDS011;9924;50.828;6.440;2023-03-23T12:44:52;4.45;;;0.90;;
19554;SDS011;9924;50.828;6.440;2023-03-23T12:47:42;4.82;;;1.10;;
19554;SDS011;9924;50.828;6.440;2023-03-23T12:53:52;3.40;;;0.90;;
19554;SDS011;9924;50.828;6.440;2023-03-23T12:56:44;3.03;;;0.93;;
19554;SDS011;9924;50.828;6.440;2023-03-23T12:59:42;1.90;;;1.00;;
19554;SDS011;9924;50.828;6.440;2023-03-23T13:02:35;2.95;;;1.05;;
19554;SDS011;9924;50.828;6.440;2023-03-23T13:08:18;2.47;;;1.00;;
19554;SDS011;9924;50.828;6.440;2023-03-23T13:11:10;2.13;;;1.00;;
19554;SDS011;9924;50.828;6.440;2023-03-23T13:14:16;6.00;;;1.40;;
19554;SDS011;9924;50.828;6.440;2023-03-23T13:23:19;2.53;;;1.00;;
19554;SDS011;9924;50.828;6.440;2023-03-23T13:26:08;4.90;;;1.33;;
19554;SDS011;9924;50.828;6.440;2023-03-23T13:29:00;4.20;;;1.33;;
19554;SDS011;9924;50.828;6.440;2023-03-23T13:32:11;3.25;;;1.02;;
19554;SDS011;9924;50.828;6.440;2023-03-23T13:35:00;4.18;;;1.10;;
19554;SDS011;9924;50.828;6.440;2023-03-23T13:37:48;2.42;;;1.20;;
19554;SDS011;9924;50.828;6.440;2023-03-23T13:40:33;3.25;;;1.60;;
19554;SDS011;9924;50.828;6.440;2023-03-23T13:43:28;5.15;;;1.23;;
19554;SDS011;9924;50.828;6.440;2023-03-23T13:52:06;2.00;;;0.98;;
19554;SDS011;9924;50.828;6.440;2023-03-23T14:00:48;4.75;;;1.60;;
19554;SDS011;9924;50.828;6.440;2023-03-23T14:03:36;3.50;;;1.20;;
19554;SDS011;9924;50.828;6.440;2023-03-23T14:06:22;5.55;;;1.30;;
19554;SDS011;9924;50.828;6.440;2023-03-23T14:09:17;4.68;;;1.40;;
19554;SDS011;9924;50.828;6.440;2023-03-23T14:12:16;3.78;;;1.52;;
19554;SDS011;9924;50.828;6.440;2023-03-23T14:15:03;4.05;;;1.38;;
19554;SDS011;9924;50.828;6.440;2023-03-23T14:17:50;3.78;;;1.33;;
19554;SDS011;9924;50.828;6.440;2023-03-23T14:20:36;2.25;;;1.02;;
19554;SDS011;9924;50.828;6.440;2023-03-23T14:23:23;3.33;;;1.52;;
19554;SDS011;9924;50.828;6.440;2023-03-23T14:26:12;4.10;;;1.30;;
19554;SDS011;9924;50.828;6.440;2023-03-23T14:29:00;4.28;;;1.10;;
19554;SDS011;9924;50.828;6.440;2023-03-23T14:31:53;2.85;;;1.08;;
19554;SDS011;9924;50.828;6.440;2023-03-23T14:34:39;2.88;;;1.10;;
19554;SDS011;9924;50.828;6.440;2023-03-23T14:37:23;3.00;;;1.20;;
19554;SDS011;9924;50.828;6.440;2023-03-23T14:40:12;4.40;;;1.30;;
19554;SDS011;9924;50.828;6.440;2023-03-23T14:42:59;3.63;;;1.30;;
19554;SDS011;9924;50.828;6.440;2023-03-23T14:45:45;2.60;;;1.30;;
19554;SDS011;9924;50.828;6.440;2023-03-23T14:48:35;2.83;;;0.98;;
19554;SDS011;9924;50.828;6.440;2023-03-23T14:51:20;2.85;;;1.40;;
19554;SDS011;9924;50.828;6.440;2023-03-23T14:54:08;2.13;;;1.30;;
19554;SDS011;9924;50.828;6.440;2023-03-23T14:56:54;4.07;;;1.27;;
19554;SDS011;9924;50.828;6.440;2023-03-23T14:59:39;4.38;;;1.10;;
19554;SDS011;9924;50.828;6.440;2023-03-23T15:02:30;2.88;;;1.17;;
19554;SDS011;9924;50.828;6.440;2023-03-23T15:05:19;3.20;;;1.17;;
19554;SDS011;9924;50.828;6.440;2023-03-23T15:08:12;3.25;;;1.30;;
19554;SDS011;9924;50.828;6.440;2023-03-23T15:11:24;5.38;;;1.38;;
19554;SDS011;9924;50.828;6.440;2023-03-23T15:14:16;4.35;;;1.20;;
19554;SDS011;9924;50.828;6.440;2023-03-23T15:17:03;4.57;;;1.20;;
19554;SDS011;9924;50.828;6.440;2023-03-23T15:19:48;3.83;;;1.13;;
19554;SDS011;9924;50.828;6.440;2023-03-23T15:22:34;4.28;;;1.35;;
19554;SDS011;9924;50.828;6.440;2023-03-23T15:30:51;2.97;;;1.23;;
19554;SDS011;9924;50.828;6.440;2023-03-23T15:33:38;3.92;;;1.30;;
19554;SDS011;9924;50.828;6.440;2023-03-23T15:36:24;3.17;;;1.40;;
19554;SDS011;9924;50.828;6.440;2023-03-23T15:39:12;4.38;;;1.20;;
19554;SDS011;9924;50.828;6.440;2023-03-23T15:41:57;5.50;;;1.33;;
19554;SDS011;9924;50.828;6.440;2023-03-23T15:44:43;7.60;;;2.08;;
19554;SDS011;9924;50.828;6.440;2023-03-23T15:53:15;6.60;;;1.42;;
19554;SDS011;9924;50.828;6.440;2023-03-23T15:56:02;5.10;;;1.48;;
19554;SDS011;9924;50.828;6.440;2023-03-23T15:58:48;8.57;;;1.77;;
19554;SDS011;9924;50.828;6.440;2023-03-23T16:01:33;3.97;;;1.30;;
19554;SDS011;9924;50.828;6.440;2023-03-23T16:04:17;7.97;;;2.40;;
19554;SDS011;9924;50.828;6.440;2023-03-23T16:07:03;8.27;;;2.05;;
19554;SDS011;9924;50.828;6.440;2023-03-23T16:09:49;3.40;;;1.33;;
19554;SDS011;9924;50.828;6.440;2023-03-23T16:12:33;4.55;;;1.50;;
19554;SDS011;9924;50.828;6.440;2023-03-23T16:15:18;4.85;;;1.60;;
19554;SDS011;9924;50.828;6.440;2023-03-23T16:18:03;4.25;;;1.33;;
19554;SDS011;9924;50.828;6.440;2023-03-23T16:20:47;7.43;;;1.45;;
19554;SDS011;9924;50.828;6.440;2023-03-23T16:23:32;4.65;;;1.60;;
19554;SDS011;9924;50.828;6.440;2023-03-23T16:26:16;4.88;;;1.30;;
19554;SDS011;9924;50.828;6.440;2023-03-23T16:29:01;7.50;;;1.70;;
19554;SDS011;9924;50.828;6.440;2023-03-23T16:31:45;6.18;;;1.70;;
19554;SDS011;9924;50.828;6.440;2023-03-23T16:34:30;4.13;;;1.42;;
19554;SDS011;9924;50.828;6.440;2023-03-23T16:37:16;6.32;;;2.08;;
19554;SDS011;9924;50.828;6.440;2023-03-23T16:40:01;3.30;;;1.30;;
19554;SDS011;9924;50.828;6.440;2023-03-23T16:42:46;4.00;;;1.58;;
19554;SDS011;9924;50.828;6.440;2023-03-23T16:45:30;5.07;;;1.70;;
19554;SDS011;9924;50.828;6.440;2023-03-23T16:48:15;9.18;;;1.75;;
19554;SDS011;9924;50.828;6.440;2023-03-23T16:50:59;3.92;;;1.58;;
19554;SDS011;9924;50.828;6.440;2023-03-23T16:53:44;3.47;;;1.42;;
19554;SDS011;9924;50.828;6.440;2023-03-23T16:56:29;3.90;;;1.45;;
19554;SDS011;9924;50.828;6.440;2023-03-23T16:59:13;6.53;;;1.85;;
19554;SDS011;9924;50.828;6.440;2023-03-23T17:01:58;2.95;;;1.75;;
19554;SDS011;9924;50.828;6.440;2023-03-23T17:04:46;6.32;;;1.80;;
19554;SDS011;9924;50.828;6.440;2023-03-23T17:07:30;4.55;;;1.60;;
19554;SDS011;9924;50.828;6.440;2023-03-23T17:10:15;4.93;;;1.63;;
19554;SDS011;9924;50.828;6.440;2023-03-23T17:12:59;6.03;;;1.90;;
19554;SDS011;9924;50.828;6.440;2023-03-23T17:15:44;7.63;;;1.75;;
19554;SDS011;9924;50.828;6.440;2023-03-23T17:18:29;7.40;;;2.72;;
19554;SDS011;9924;50.828;6.440;2023-03-23T17:21:14;4.60;;;1.63;;
19554;SDS011;9924;50.828;6.440;2023-03-23T17:23:59;6.57;;;2.10;;
19554;SDS011;9924;50.828;6.440;2023-03-23T17:26:43;7.75;;;1.80;;
19554;SDS011;9924;50.828;6.440;2023-03-23T17:29:27;5.55;;;1.80;;
19554;SDS011;9924;50.828;6.440;2023-03-23T17:32:12;3.83;;;1.60;;
19554;SDS011;9924;50.828;6.440;2023-03-23T17:34:56;4.85;;;1.70;;
19554;SDS011;9924;50.828;6.440;2023-03-23T17:37:41;5.88;;;2.00;;
19554;SDS011;9924;50.828;6.440;2023-03-23T17:40:26;6.97;;;2.00;;
19554;SDS011;9924;50.828;6.440;2023-03-23T17:43:10;6.20;;;2.40;;
19554;SDS011;9924;50.828;6.440;2023-03-23T17:45:54;3.72;;;1.70;;
19554;SDS011;9924;50.828;6.440;2023-03-23T17:48:39;10.25;;;2.58;;
19554;SDS011;9924;50.828;6.440;2023-03-23T17:51:23;6.82;;;1.90;;
19554;SDS011;9924;50.828;6.440;2023-03-23T17:54:08;7.35;;;1.88;;
19554;SDS011;9924;50.828;6.440;2023-03-23T17:56:52;7.97;;;2.20;;
19554;SDS011;9924;50.828;6.440;2023-03-23T17:59:36;6.57;;;2.42;;
19554;SDS011;9924;50.828;6.440;2023-03-23T18:02:21;7.47;;;2.17;;
19554;SDS011;9924;50.828;6.440;2023-03-23T18:05:05;5.57;;;1.90;;
19554;SDS011;9924;50.828;6.440;2023-03-23T18:07:51;4.40;;;2.20;;
19554;SDS011;9924;50.828;6.440;2023-03-23T18:10:37;7.82;;;2.15;;
19554;SDS011;9924;50.828;6.440;2023-03-23T18:13:25;7.10;;;1.88;;
19554;SDS011;9924;50.828;6.440;2023-03-23T18:16:11;6.75;;;2.08;;
19554;SDS011;9924;50.828;6.440;2023-03-23T18:18:55;6.15;;;2.10;;
19554;SDS011;9924;50.828;6.440;2023-03-23T18:21:39;5.82;;;2.08;;
19554;SDS011;9924;50.828;6.440;2023-03-23T18:24:24;7.35;;;1.92;;
19554;SDS011;9924;50.828;6.440;2023-03-23T18:27:09;6.88;;;1.90;;
19554;SDS011;9924;50.828;6.440;2023-03-23T18:29:53;4.68;;;1.90;;
19554;SDS011;9924;50.828;6.440;2023-03-23T18:32:38;5.03;;;1.85;;
19554;SDS011;9924;50.828;6.440;2023-03-23T18:35:23;7.80;;;2.30;;
19554;SDS011;9924;50.828;6.440;2023-03-23T18:38:07;8.15;;;1.85;;